TNCATJSJ

Guest
Details From TNCA - Reina Beatrix Intl
To TJSJ - San Juan - Luis Munoz Marin Intl
Flight Number -
Tags Generated
Created
Modified
Stats Distance 425 nm / 787 km
Max Altitude 0 ft / 0 m
Waypoints 3
Social Downloads 1
Likes 0
Share VATSIM

Download

Looking for another format? Having issues loading an existing format? Contact us
Advertisement - Login to hide

Notes

Generated

Route

TNCA R1270 TJSJ

ID Type Via Altitude Latitude Longitude Leg Dist Tot Dist Heading (true) Name
O TNCA APT - 0 ft / 0 m 12.50439˚ -70.02747˚ - 0 nm - -
R1270 FIX - 0 ft / 0 m 18.43356˚ -66.01373˚ 425 nm 425 nm 33° / 34° -
O TJSJ APT - 0 ft / 0 m 18.43356˚ -66.01373˚ 0 nm 425 nm 0° / 180° -

Altitude Profile

Advertisement - Login to hide

Weather


0- 5 10 15 20 25 30 35+ Temperature / ° C

Clouds and Precipitation
Forecast for 2018-05-26 12:00 UTC. Updated 3 hours ago

Ground ~20,000 ft ~40,000 ft Winds

TNCA

Details ICAO TNCA (AUA)
Name REINA BEATRIX INTL
Region Caribbean Netherlands, Aruba, Curaçao, Sint Maarten
Timezone America/Aruba (UTC-4.0)
Stats Elevation 60 ft / 18 m (AMSL)
Location 12.501389° -70.015220°
Runways 1
Magnetic Variation 10.815° W

METAR

TNCA 261400Z 10020G31KT 9999 FEW021 30/25 Q1011 NOSIG

Decode

TAF

Not found

Departure Runways

ID Width Length Bearing (true) Bearing (mag) Surface Threshold Offset Overrun Length
11 148 ft / 45 m 8,998 ft / 2,743 m 104.08° 114.89° Asphalt 0 ft / 0 m 184 ft / 56 m
29 148 ft / 45 m 8,998 ft / 2,743 m 284.09° 294.90° Asphalt 0 ft / 0 m 184 ft / 56 m

TJSJ

Details ICAO TJSJ (SJU)
Name San Juan - Luis Munoz Marin Intl
Region USA (Puerto Rico)
Timezone America/Puerto_Rico (UTC-4.0)
Stats Elevation 9 ft / 3 m (AMSL)
Location 18.438777° -66.002018°
Runways 2
Magnetic Variation 13.242° W

METAR

TJSJ 261356Z 09014KT 10SM FEW026 SCT033 SCT041 28/24 A3002

Decode

TAF

TAF TJSJ 261143Z 2612/2712 11005KT P6SM FEW025 FM261400 08014KT P6SM FEW025 SCT050 FM261800 07015G22KT P6SM VCSH SCT025 SCT040 FM262200 10006KT P6SM SCT030

Decode

Destination Runways

ID Width Length Bearing (true) Bearing (mag) Surface Threshold Offset Overrun Length
08 200 ft / 61 m 9,781 ft / 2,981 m 66.87° 80.11° Asphalt 0 ft / 0 m 200 ft / 61 m
10 151 ft / 46 m 8,007 ft / 2,440 m 90.14° 103.38° Concrete 0 ft / 0 m 200 ft / 61 m
26 200 ft / 61 m 9,781 ft / 2,981 m 246.88° 260.12° Asphalt 0 ft / 0 m 230 ft / 70 m
28 151 ft / 46 m 8,007 ft / 2,440 m 270.15° 283.39° Concrete 0 ft / 0 m 200 ft / 61 m

Approach Navaids

Runway Type Ident Frequency Range Bearing (true) Bearing (mag) Slope Elevation
08 Localiser ISJU 110.30 MHz 18 nm / 33 km 66.88° 80.12° - 5 ft / 2 m (AMSL)
08 Glidescope ISJU 110.30 MHz 10 nm / 19 km 66.87° 80.11° 3.00° 9 ft / 3 m (AMSL)
10 Localiser ICLA 109.70 MHz 18 nm / 33 km 90.15° 103.39° - 9 ft / 3 m (AMSL)
10 Glidescope ICLA 109.70 MHz 10 nm / 19 km 90.14° 103.39° 3.00° 8 ft / 2 m (AMSL)

Popular Alternatives